Time;durP1;ratioP1;P1;durP2;ratioP2;P2;SDS_P1;SDS_P2;PMS_P1;PMS_P2;Temp;Humidity;BMP_temperature;BMP_pressure;BME280_temperature;BME280_humidity;BME280_pressure;Samples;Min_cycle;Max_cycle;Signal;HPM_P1;HPM_P2
2023/12/24 00:16:43;;;;;;;3.95;2.20;;;;;;;20.31;55.20;99454.78;41682751;28;20575;-73
2023/12/24 00:36:43;;;;;;;3.00;1.83;;;;;;;20.30;55.01;99484.69;41702117;28;20127;-75
2023/12/24 00:56:43;;;;;;;3.00;1.98;;;;;;;20.29;55.16;99509.31;41744590;28;20144;-76
2023/12/24 01:16:44;;;;;;;3.17;1.70;;;;;;;20.24;54.74;99556.19;41742212;28;20049;-74
2023/12/24 01:36:45;;;;;;;1.88;1.58;;;;;;;20.22;54.33;99545.81;41742199;28;20060;-75
2023/12/24 01:56:46;;;;;;;3.83;1.73;;;;;;;20.12;54.90;99551.03;41712487;28;20488;-72
2023/12/24 02:16:48;;;;;;;2.65;1.40;;;;;;;20.09;54.65;99543.41;41714866;28;20045;-74
2023/12/24 02:36:49;;;;;;;2.50;1.25;;;;;;;20.07;54.53;99539.25;41709126;28;20049;-72
2023/12/24 02:56:49;;;;;;;1.58;1.17;;;;;;;20.06;54.45;99550.72;41688420;28;20132;-74
2023/12/24 03:16:49;;;;;;;1.17;1.08;;;;;;;20.07;54.07;99553.22;41706917;28;20049;-75
2023/12/24 03:36:50;;;;;;;1.52;1.10;;;;;;;20.09;54.09;99553.94;41702183;28;20625;-75
2023/12/24 03:56:50;;;;;;;1.20;1.10;;;;;;;20.12;54.40;99568.59;41698849;28;20444;-72
2023/12/24 04:16:50;;;;;;;1.00;0.90;;;;;;;20.10;54.30;99550.34;41691865;28;20053;-74
2023/12/24 04:36:53;;;;;;;1.15;1.05;;;;;;;20.06;54.21;99527.91;41663385;28;20496;-75
2023/12/24 04:56:54;;;;;;;0.90;0.90;;;;;;;20.11;53.75;99525.69;41705960;28;20037;-73
2023/12/24 05:16:55;;;;;;;1.15;0.77;;;;;;;20.35;53.38;99514.03;41697280;28;20504;-75
2023/12/24 05:36:56;;;;;;;1.95;0.80;;;;;;;20.90;52.12;99534.63;41673590;28;20064;-71
2023/12/24 05:56:56;;;;;;;1.25;1.00;;;;;;;21.04;51.63;99529.91;41687829;28;20073;-70
2023/12/24 06:16:57;;;;;;;0.68;0.68;;;;;;;21.24;51.61;99539.47;41690042;28;21777;-70
2023/12/24 06:36:57;;;;;;;4.03;1.55;;;;;;;21.22;51.85;99525.59;41689268;28;20107;-71
2023/12/24 06:56:57;;;;;;;5.60;1.85;;;;;;;21.39;51.84;99555.66;41681314;28;20041;-72
2023/12/24 07:16:58;;;;;;;6.10;1.55;;;;;;;21.40;52.54;99577.59;41669614;28;20052;-72
2023/12/24 07:36:58;;;;;;;4.15;2.40;;;;;;;21.61;53.66;99581.88;41630105;28;20116;-69
2023/12/24 07:56:59;;;;;;;5.63;3.03;;;;;;;21.46;50.31;99602.50;41628468;28;20126;-70
2023/12/24 08:17:00;;;;;;;7.28;2.00;;;;;;;21.45;47.10;99625.41;41581748;28;20396;-68
2023/12/24 08:37:00;;;;;;;1.13;1.02;;;;;;;17.56;43.62;99651.63;41611913;28;20033;-75
2023/12/24 08:57:01;;;;;;;17.98;5.22;;;;;;;21.47;47.51;99691.09;41654294;28;20037;-73
2023/12/24 09:17:01;;;;;;;10.95;5.57;;;;;;;21.69;50.20;99671.56;41704792;28;20049;-73
2023/12/24 09:37:03;;;;;;;8.90;4.10;;;;;;;21.47;48.83;99684.03;41644188;28;20045;-70
2023/12/24 09:57:04;;;;;;;39.30;11.65;;;;;;;21.72;50.54;99690.56;41627603;28;20132;-68
2023/12/24 10:17:05;;;;;;;23.08;8.40;;;;;;;21.97;52.07;99672.53;41601166;28;20041;-68
2023/12/24 10:37:29;;;;;;;18.08;5.50;;;;;;;22.33;52.33;99664.78;41647127;28;20048;-71
2023/12/24 10:57:50;;;;;;;12.52;4.80;;;;;;;22.39;52.13;99666.06;41652201;28;20496;-68
2023/12/24 11:17:51;;;;;;;14.13;4.15;;;;;;;22.35;52.16;99615.38;41634932;28;20049;-68
2023/12/24 11:37:51;;;;;;;25.77;4.43;;;;;;;22.46;52.54;99606.47;41657749;28;20041;-69
2023/12/24 11:57:51;;;;;;;11.63;3.65;;;;;;;22.27;52.67;99582.78;41625238;28;20110;-66
2023/12/24 12:17:52;;;;;;;2.65;1.33;;;;;;;21.84;46.67;99567.41;41659113;28;20033;-72
2023/12/24 12:37:52;;;;;;;2.70;1.48;;;;;;;22.14;50.58;99562.03;41711866;28;20041;-71
2023/12/24 12:57:53;;;;;;;7.75;4.05;;;;;;;22.67;51.46;99587.75;41726253;28;20156;-69
2023/12/24 13:17:53;;;;;;;5.30;2.63;;;;;;;22.81;52.55;99591.72;41658579;28;20168;-70
2023/12/24 13:37:53;;;;;;;6.82;2.22;;;;;;;22.68;53.34;99564.84;41656004;28;20053;-68
2023/12/24 13:57:55;;;;;;;6.10;2.00;;;;;;;22.98;54.12;99592.69;41686002;28;20476;-69
2023/12/24 14:17:56;;;;;;;7.63;2.47;;;;;;;22.85;53.58;99602.78;41635876;28;20120;-74
2023/12/24 14:37:56;;;;;;;4.78;1.90;;;;;;;22.88;51.94;99620.16;41702665;28;20064;-78
2023/12/24 14:57:57;;;;;;;6.63;1.98;;;;;;;22.76;52.89;99628.25;41692316;28;20644;-71
2023/12/24 15:18:00;;;;;;;7.15;2.40;;;;;;;22.60;53.43;99659.75;41654986;28;20045;-69
2023/12/24 15:38:00;;;;;;;8.35;2.13;;;;;;;22.35;53.53;99659.38;41666846;28;20126;-68
2023/12/24 15:58:02;;;;;;;6.50;2.20;;;;;;;22.31;53.49;99674.66;41687294;28;20139;-70
2023/12/24 16:18:02;;;;;;;6.78;2.22;;;;;;;22.25;53.77;99658.56;41653470;28;20037;-68
2023/12/24 16:38:04;;;;;;;5.70;2.38;;;;;;;22.27;53.63;99654.81;41646500;28;20029;-68
2023/12/24 16:58:04;;;;;;;6.28;2.30;;;;;;;21.93;50.64;99662.41;41656475;28;20043;-68
2023/12/24 17:18:05;;;;;;;6.38;2.10;;;;;;;21.87;51.76;99692.78;41684985;28;20059;-70
2023/12/24 17:38:06;;;;;;;4.00;2.20;;;;;;;21.84;51.91;99677.28;41723146;28;20626;-69
2023/12/24 17:58:06;;;;;;;4.93;2.58;;;;;;;21.83;52.42;99671.16;41698092;28;20049;-70
2023/12/24 18:18:07;;;;;;;2.88;2.53;;;;;;;21.77;52.17;99655.91;41707672;28;20117;-71
2023/12/24 18:38:08;;;;;;;2.78;2.58;;;;;;;21.72;52.88;99644.97;41712465;28;20076;-71
2023/12/24 18:58:08;;;;;;;3.67;2.90;;;;;;;21.78;53.03;99643.56;41711004;28;20040;-68
2023/12/24 19:18:09;;;;;;;4.57;3.13;;;;;;;21.71;52.83;99630.13;41687059;28;20503;-69
2023/12/24 19:38:09;;;;;;;4.03;3.38;;;;;;;21.71;53.47;99638.84;41693413;28;20433;-67
2023/12/24 19:58:09;;;;;;;10.45;3.50;;;;;;;21.76;53.52;99643.69;41696143;28;20401;-67
2023/12/24 20:18:10;;;;;;;5.93;3.30;;;;;;;21.78;54.31;99646.22;41675205;28;20084;-68
2023/12/24 20:38:10;;;;;;;4.47;3.17;;;;;;;21.77;54.53;99657.72;41673046;28;20041;-68
2023/12/24 20:58:11;;;;;;;12.85;3.53;;;;;;;21.78;54.90;99654.94;41682308;28;20159;-67
2023/12/24 21:18:12;;;;;;;7.00;3.30;;;;;;;21.67;54.26;99655.91;41712383;28;20030;-69
2023/12/24 21:38:12;;;;;;;6.70;3.15;;;;;;;21.65;54.82;99642.03;41693066;28;20034;-69
2023/12/24 21:58:13;;;;;;;4.32;2.80;;;;;;;21.35;52.48;99611.38;41684931;28;20095;-68
2023/12/24 22:18:15;;;;;;;5.25;3.65;;;;;;;21.47;52.67;99605.03;41703220;28;20041;-68
2023/12/24 22:38:15;;;;;;;8.00;3.90;;;;;;;21.35;54.30;99578.00;41680635;28;20048;-70
2023/12/24 22:58:16;;;;;;;7.05;3.55;;;;;;;21.34;54.69;99526.28;41700376;28;20036;-71
2023/12/24 23:18:16;;;;;;;5.82;3.30;;;;;;;21.26;55.42;99492.78;41703542;28;20440;-70
2023/12/24 23:38:17;;;;;;;5.63;3.80;;;;;;;21.17;55.92;99483.09;41693416;28;20400;-70
2023/12/24 23:58:19;;;;;;;4.85;3.80;;;;;;;21.18;55.65;99520.75;41686940;28;20508;-70
